Time;durP1;ratioP1;P1;durP2;ratioP2;P2;SDS_P1;SDS_P2;PMS_P1;PMS_P2;Temp;Humidity;BMP_temperature;BMP_pressure;BME280_temperature;BME280_humidity;BME280_pressure;Samples;Min_cycle;Max_cycle;Signal;HPM_P1;HPM_P2
2022/10/05 00:00:20;;;;;;;8.93;7.53;;;;;;;;;;5098154;28;20202;-62
2022/10/05 00:02:49;;;;;;;10.10;8.03;;;;;;;;;;5100693;28;20228;-62
2022/10/05 00:05:21;;;;;;;9.53;8.17;;;;;;;;;;5100404;28;20217;-62
2022/10/05 00:07:49;;;;;;;8.80;7.63;;;;;;;;;;5100970;28;20209;-62
2022/10/05 00:10:19;;;;;;;9.33;7.30;;;;;;;;;;5100308;28;20197;-62
2022/10/05 00:12:48;;;;;;;9.10;8.13;;;;;;;;;;5100578;28;20552;-62
2022/10/05 00:15:17;;;;;;;10.73;7.97;;;;;;;;;;5100240;28;20217;-62
2022/10/05 00:17:45;;;;;;;10.03;8.10;;;;;;;;;;5100706;28;20204;-62
2022/10/05 00:20:18;;;;;;;10.33;7.13;;;;;;;;;;5100254;28;20661;-62
2022/10/05 00:22:46;;;;;;;11.17;8.13;;;;;;;;;;5100496;28;20197;-62
2022/10/05 00:25:16;;;;;;;10.83;8.23;;;;;;;;;;5100156;28;20221;-62
2022/10/05 00:27:46;;;;;;;10.30;7.37;;;;;;;;;;5100065;28;20571;-62
2022/10/05 00:30:15;;;;;;;10.13;7.97;;;;;;;;;;5100000;28;20276;-62
2022/10/05 00:32:44;;;;;;;12.23;7.93;;;;;;;;;;5100172;28;20261;-62
2022/10/05 00:35:12;;;;;;;11.40;8.40;;;;;;;;;;5099873;28;20210;-62
2022/10/05 00:37:40;;;;;;;11.30;8.17;;;;;;;;;;5100282;28;20209;-62
2022/10/05 00:40:12;;;;;;;9.00;8.00;;;;;;;;;;5100213;28;20277;-62
2022/10/05 00:42:47;;;;;;;11.10;7.70;;;;;;;;;;5092675;28;20201;-62
2022/10/05 00:45:19;;;;;;;10.07;7.23;;;;;;;;;;5099548;28;20223;-62
2022/10/05 00:47:52;;;;;;;10.53;8.13;;;;;;;;;;5099916;28;20280;-62
2022/10/05 00:50:26;;;;;;;9.17;8.13;;;;;;;;;;5099671;28;20676;-62
2022/10/05 00:52:58;;;;;;;8.10;7.27;;;;;;;;;;5099696;28;20235;-61
2022/10/05 00:55:32;;;;;;;10.03;7.63;;;;;;;;;;5098522;28;20198;-62
2022/10/05 00:58:07;;;;;;;9.50;7.47;;;;;;;;;;5099796;28;20281;-62
2022/10/05 01:00:41;;;;;;;9.47;7.70;;;;;;;;;;5099406;28;20219;-62
2022/10/05 01:03:12;;;;;;;19.50;11.60;;;;;;;;;;5099699;28;20208;-62
2022/10/05 01:05:46;;;;;;;11.13;8.43;;;;;;;;;;5099341;28;20201;-62
2022/10/05 01:08:18;;;;;;;9.33;8.20;;;;;;;;;;5099755;28;20207;-62
2022/10/05 01:10:50;;;;;;;8.27;7.07;;;;;;;;;;5091461;28;20198;-62
2022/10/05 01:13:24;;;;;;;8.67;7.23;;;;;;;;;;5099597;28;20229;-62
2022/10/05 01:15:55;;;;;;;8.50;7.60;;;;;;;;;;5092688;28;20288;-62
2022/10/05 01:18:27;;;;;;;11.10;7.40;;;;;;;;;;5099081;28;20597;-62
2022/10/05 01:21:00;;;;;;;9.63;6.97;;;;;;;;;;5094376;28;20305;-62
2022/10/05 01:23:54;;;;;;;11.73;7.13;;;;;;;;;;5099121;28;20304;-62
2022/10/05 01:26:32;;;;;;;8.30;6.90;;;;;;;;;;5099011;28;20220;-62
2022/10/05 01:29:04;;;;;;;12.00;6.77;;;;;;;;;;5099316;28;20204;-62
2022/10/05 01:31:35;;;;;;;8.77;7.20;;;;;;;;;;5098545;28;20716;-63
2022/10/05 01:34:07;;;;;;;7.13;6.43;;;;;;;;;;5098881;28;20221;-62
2022/10/05 01:36:42;;;;;;;9.53;6.67;;;;;;;;;;5098807;28;20205;-62
2022/10/05 01:39:14;;;;;;;8.03;7.17;;;;;;;;;;5099121;28;20208;-62
2022/10/05 01:41:46;;;;;;;14.13;7.97;;;;;;;;;;5098622;28;20292;-62
2022/10/05 01:44:16;;;;;;;11.80;6.73;;;;;;;;;;5098768;28;20220;-62
2022/10/05 01:46:48;;;;;;;10.37;7.13;;;;;;;;;;5098643;28;20216;-62
2022/10/05 01:49:31;;;;;;;9.37;7.10;;;;;;;;;;5098754;28;20194;-62
2022/10/05 01:52:05;;;;;;;8.73;6.97;;;;;;;;;;5096104;28;20247;-62
2022/10/05 01:54:38;;;;;;;13.10;7.50;;;;;;;;;;5098365;28;20714;-63
2022/10/05 01:57:19;;;;;;;8.43;7.00;;;;;;;;;;5098707;28;20281;-62
2022/10/05 01:59:55;;;;;;;13.03;7.93;;;;;;;;;;5098336;28;20201;-62
2022/10/05 02:02:24;;;;;;;10.03;7.47;;;;;;;;;;5098661;28;20205;-61
2022/10/05 02:04:55;;;;;;;9.83;7.10;;;;;;;;;;5098192;28;20320;-61
2022/10/05 02:07:30;;;;;;;7.53;6.40;;;;;;;;;;5098673;28;20201;-62
2022/10/05 02:09:59;;;;;;;13.57;7.90;;;;;;;;;;5098314;28;20204;-62
2022/10/05 02:12:28;;;;;;;11.50;7.40;;;;;;;;;;5098165;28;20744;-61
2022/10/05 02:15:01;;;;;;;11.43;7.13;;;;;;;;;;5097981;28;20236;-62
2022/10/05 02:17:32;;;;;;;10.10;7.27;;;;;;;;;;5098136;28;20206;-62
2022/10/05 02:20:02;;;;;;;10.13;6.90;;;;;;;;;;5097987;28;20445;-62
2022/10/05 02:22:32;;;;;;;13.70;7.60;;;;;;;;;;5098362;28;20207;-61
2022/10/05 02:25:02;;;;;;;8.73;7.50;;;;;;;;;;5097481;28;20229;-62
2022/10/05 02:27:33;;;;;;;12.03;7.30;;;;;;;;;;5097828;28;20271;-62
2022/10/05 02:30:04;;;;;;;9.53;7.87;;;;;;;;;;5097477;28;20223;-62
2022/10/05 02:32:35;;;;;;;10.60;8.20;;;;;;;;;;5097766;28;20735;-62
2022/10/05 02:35:07;;;;;;;11.67;9.00;;;;;;;;;;5097816;28;20224;-62
2022/10/05 02:37:43;;;;;;;12.33;8.00;;;;;;;;;;5097855;28;20285;-62
2022/10/05 02:40:17;;;;;;;10.97;8.77;;;;;;;;;;5097849;28;20197;-62
2022/10/05 02:42:51;;;;;;;10.20;8.63;;;;;;;;;;5097952;28;20207;-62
2022/10/05 02:45:27;;;;;;;13.43;10.53;;;;;;;;;;5092710;28;20225;-62
2022/10/05 02:48:00;;;;;;;15.57;10.17;;;;;;;;;;5097421;28;20201;-62
2022/10/05 02:50:32;;;;;;;14.17;10.40;;;;;;;;;;5097551;28;20579;-62
2022/10/05 02:53:07;;;;;;;17.70;10.00;;;;;;;;;;5097258;28;20311;-62
2022/10/05 02:55:40;;;;;;;12.53;9.33;;;;;;;;;;5097774;28;20281;-62
2022/10/05 02:58:12;;;;;;;12.97;8.77;;;;;;;;;;5096809;28;20613;-62
2022/10/05 03:00:45;;;;;;;13.90;8.70;;;;;;;;;;5095894;28;20555;-62
2022/10/05 03:03:17;;;;;;;14.30;9.13;;;;;;;;;;5095328;28;20212;-62
2022/10/05 03:05:48;;;;;;;9.80;8.63;;;;;;;;;;5096350;28;20217;-61
2022/10/05 03:08:18;;;;;;;10.43;7.83;;;;;;;;;;5095594;28;20232;-62
2022/10/05 03:10:52;;;;;;;10.47;7.63;;;;;;;;;;5097407;28;20208;-62
2022/10/05 03:13:25;;;;;;;12.40;8.10;;;;;;;;;;5095597;28;20695;-62
2022/10/05 03:16:08;;;;;;;9.87;7.90;;;;;;;;;;5096567;28;20193;-62
2022/10/05 03:18:44;;;;;;;10.13;7.67;;;;;;;;;;5093642;28;20288;-61
2022/10/05 03:21:18;;;;;;;11.93;8.20;;;;;;;;;;5095959;28;20205;-61
2022/10/05 03:23:53;;;;;;;10.70;7.57;;;;;;;;;;5092716;28;20221;-61
2022/10/05 03:26:28;;;;;;;12.90;7.43;;;;;;;;;;5095710;28;20275;-62
2022/10/05 03:29:00;;;;;;;11.43;7.83;;;;;;;;;;5095809;28;20208;-62
2022/10/05 03:31:31;;;;;;;10.67;7.17;;;;;;;;;;5095583;28;20237;-61
2022/10/05 03:34:04;;;;;;;9.20;7.40;;;;;;;;;;5093475;28;20274;-62
2022/10/05 03:36:37;;;;;;;11.33;7.03;;;;;;;;;;5095754;28;20205;-62
2022/10/05 03:39:08;;;;;;;10.37;6.80;;;;;;;;;;5096135;28;20205;-61
2022/10/05 03:41:41;;;;;;;11.13;6.97;;;;;;;;;;5096055;28;20627;-61
2022/10/05 03:44:15;;;;;;;11.17;7.97;;;;;;;;;;5096206;28;20692;-62
2022/10/05 03:46:53;;;;;;;10.87;7.97;;;;;;;;;;5095468;28;20217;-62
2022/10/05 03:49:27;;;;;;;10.87;7.37;;;;;;;;;;5093864;28;20205;-62
2022/10/05 03:51:59;;;;;;;11.20;7.73;;;;;;;;;;5095245;28;20229;-61
2022/10/05 03:54:30;;;;;;;13.10;7.17;;;;;;;;;;5095615;28;20232;-61
2022/10/05 03:57:00;;;;;;;11.27;7.13;;;;;;;;;;5094229;28;20560;-62
2022/10/05 03:59:30;;;;;;;10.03;7.13;;;;;;;;;;5100344;28;20215;-62
2022/10/05 04:02:01;;;;;;;11.77;7.13;;;;;;;;;;5089406;28;20557;-62
2022/10/05 04:04:33;;;;;;;12.70;8.20;;;;;;;;;;5096725;28;20707;-62
2022/10/05 04:07:01;;;;;;;13.83;8.27;;;;;;;;;;5088801;28;20696;-62
2022/10/05 04:09:31;;;;;;;11.77;7.63;;;;;;;;;;5101817;28;20208;-62
2022/10/05 04:12:04;;;;;;;11.30;7.33;;;;;;;;;;5104246;28;20198;-62
2022/10/05 04:14:34;;;;;;;12.97;7.53;;;;;;;;;;5101811;28;20228;-62
2022/10/05 04:17:04;;;;;;;13.47;7.23;;;;;;;;;;5095808;28;20657;-61
2022/10/05 04:19:37;;;;;;;14.47;8.00;;;;;;;;;;5096349;28;20220;-63
2022/10/05 04:22:08;;;;;;;8.00;7.07;;;;;;;;;;5095759;28;20281;-62
2022/10/05 04:24:39;;;;;;;10.83;7.17;;;;;;;;;;5096904;28;20233;-62
2022/10/05 04:27:10;;;;;;;11.40;7.67;;;;;;;;;;5096098;28;20236;-63
2022/10/05 04:29:41;;;;;;;11.27;7.23;;;;;;;;;;5097545;28;20284;-63
2022/10/05 04:32:16;;;;;;;8.17;7.10;;;;;;;;;;5100155;28;20201;-62
2022/10/05 04:34:53;;;;;;;13.23;7.90;;;;;;;;;;5100423;28;20231;-63
2022/10/05 04:37:23;;;;;;;11.40;7.70;;;;;;;;;;5097150;28;20221;-63
2022/10/05 04:39:57;;;;;;;8.10;6.63;;;;;;;;;;5100145;28;20243;-64
2022/10/05 04:42:28;;;;;;;10.23;7.33;;;;;;;;;;5099056;28;20281;-65
2022/10/05 04:45:09;;;;;;;10.03;6.90;;;;;;;;;;5099770;28;20634;-64
2022/10/05 04:47:47;;;;;;;12.13;7.10;;;;;;;;;;5093462;28;20201;-65
2022/10/05 04:50:23;;;;;;;9.23;6.50;;;;;;;;;;5099966;28;20201;-65
2022/10/05 04:52:58;;;;;;;9.00;7.37;;;;;;;;;;5094531;28;20225;-63
2022/10/05 04:55:29;;;;;;;8.43;7.13;;;;;;;;;;5099571;28;20204;-65
2022/10/05 04:58:01;;;;;;;8.83;7.53;;;;;;;;;;5099740;28;20201;-65
2022/10/05 05:00:33;;;;;;;9.47;7.40;;;;;;;;;;5099144;28;20233;-64
2022/10/05 05:03:14;;;;;;;8.70;7.47;;;;;;;;;;5099918;28;20193;-65
2022/10/05 05:05:47;;;;;;;10.23;8.27;;;;;;;;;;5091410;28;20217;-64
2022/10/05 05:08:41;;;;;;;10.47;8.57;;;;;;;;;;5099492;28;20224;-64
2022/10/05 05:11:21;;;;;;;9.53;8.27;;;;;;;;;;5099490;28;20201;-65
2022/10/05 05:14:07;;;;;;;14.87;9.67;;;;;;;;;;5091513;28;20235;-65
2022/10/05 05:16:37;;;;;;;13.63;9.47;;;;;;;;;;5099000;28;20193;-63
2022/10/05 05:19:28;;;;;;;11.07;9.30;;;;;;;;;;5098959;28;20565;-63
2022/10/05 05:22:02;;;;;;;12.00;9.10;;;;;;;;;;5099132;28;20204;-63
2022/10/05 05:24:37;;;;;;;11.17;9.97;;;;;;;;;;5102444;28;20227;-64
2022/10/05 05:27:24;;;;;;;14.03;10.30;;;;;;;;;;5105864;28;20221;-64
2022/10/05 05:29:57;;;;;;;12.07;9.77;;;;;;;;;;5098131;28;20563;-65
2022/10/05 05:32:31;;;;;;;10.30;9.20;;;;;;;;;;5098631;28;20284;-65
2022/10/05 05:35:05;;;;;;;14.00;10.50;;;;;;;;;;5098622;28;20236;-64
2022/10/05 05:37:38;;;;;;;12.33;9.97;;;;;;;;;;5098612;28;20196;-64
2022/10/05 05:40:12;;;;;;;12.83;10.40;;;;;;;;;;5098015;28;20610;-65
2022/10/05 05:42:45;;;;;;;12.40;9.90;;;;;;;;;;5098752;28;20201;-65
2022/10/05 05:45:16;;;;;;;11.13;9.30;;;;;;;;;;5098343;28;20308;-64
2022/10/05 05:47:50;;;;;;;12.00;10.43;;;;;;;;;;5098742;28;20309;-65
2022/10/05 05:50:26;;;;;;;12.47;10.63;;;;;;;;;;5098600;28;20207;-65
2022/10/05 05:52:59;;;;;;;12.77;9.90;;;;;;;;;;5098030;28;20715;-65
2022/10/05 05:55:29;;;;;;;12.83;9.80;;;;;;;;;;5098108;28;20200;-65
2022/10/05 05:58:00;;;;;;;11.20;9.73;;;;;;;;;;5098499;28;20712;-64
2022/10/05 06:00:30;;;;;;;10.67;9.10;;;;;;;;;;5090267;28;20280;-64
2022/10/05 06:03:02;;;;;;;13.27;9.60;;;;;;;;;;5098346;28;20285;-65
2022/10/05 06:05:32;;;;;;;11.43;9.27;;;;;;;;;;5098253;28;20811;-64
2022/10/05 06:08:04;;;;;;;11.10;9.23;;;;;;;;;;5098583;28;20304;-65
2022/10/05 06:10:36;;;;;;;12.53;9.10;;;;;;;;;;5098067;28;20235;-64
2022/10/05 06:13:06;;;;;;;10.87;8.20;;;;;;;;;;5098404;28;20204;-64
2022/10/05 06:15:36;;;;;;;8.43;7.50;;;;;;;;;;5097977;28;20210;-64
2022/10/05 06:18:09;;;;;;;8.90;7.67;;;;;;;;;;5098549;28;20194;-65
2022/10/05 06:20:40;;;;;;;10.63;8.40;;;;;;;;;;5098075;28;20198;-65
2022/10/05 06:23:14;;;;;;;11.63;8.03;;;;;;;;;;5093875;28;20202;-64
2022/10/05 06:25:48;;;;;;;14.13;7.97;;;;;;;;;;5097213;28;20292;-65
2022/10/05 06:28:16;;;;;;;13.20;8.30;;;;;;;;;;5098216;28;20217;-65
2022/10/05 06:30:47;;;;;;;12.87;9.03;;;;;;;;;;5097255;28;20649;-65
2022/10/05 06:33:22;;;;;;;11.40;8.13;;;;;;;;;;5097703;28;20202;-64
2022/10/05 06:36:00;;;;;;;9.87;8.37;;;;;;;;;;5097809;28;20284;-64
2022/10/05 06:38:38;;;;;;;13.37;8.50;;;;;;;;;;5097959;28;20213;-64
2022/10/05 06:41:11;;;;;;;12.33;8.57;;;;;;;;;;5097511;28;20260;-64
2022/10/05 06:43:44;;;;;;;11.63;9.10;;;;;;;;;;5097563;28;20221;-64
2022/10/05 06:46:15;;;;;;;11.83;8.47;;;;;;;;;;5090213;28;20208;-64
2022/10/05 06:49:01;;;;;;;15.03;7.80;;;;;;;;;;5097496;28;20205;-64
2022/10/05 06:51:32;;;;;;;12.87;8.60;;;;;;;;;;5091670;28;20201;-65
2022/10/05 06:54:08;;;;;;;9.77;8.33;;;;;;;;;;5096785;28;20719;-64
2022/10/05 06:56:40;;;;;;;11.93;8.37;;;;;;;;;;5097575;28;20280;-64
2022/10/05 06:59:11;;;;;;;12.77;8.63;;;;;;;;;;5097211;28;20212;-64
2022/10/05 07:01:45;;;;;;;11.50;7.47;;;;;;;;;;5097436;28;20202;-64
2022/10/05 07:04:40;;;;;;;11.47;8.07;;;;;;;;;;5097168;28;20217;-64
2022/10/05 07:07:12;;;;;;;11.67;7.60;;;;;;;;;;5097326;28;20217;-64
2022/10/05 07:09:46;;;;;;;12.20;6.67;;;;;;;;;;5097514;28;20197;-64
2022/10/05 07:12:21;;;;;;;9.03;6.03;;;;;;;;;;5097011;28;20197;-64
2022/10/05 07:14:58;;;;;;;9.30;5.80;;;;;;;;;;5096715;28;20299;-64
2022/10/05 07:17:32;;;;;;;9.57;6.07;;;;;;;;;;5096902;28;20224;-64
2022/10/05 07:20:03;;;;;;;9.93;5.97;;;;;;;;;;5097052;28;20536;-63
2022/10/05 07:22:58;;;;;;;9.83;5.90;;;;;;;;;;5097127;28;20293;-65
2022/10/05 07:25:31;;;;;;;13.97;4.90;;;;;;;;;;5059832;28;20205;-65
2022/10/05 07:28:03;;;;;;;6.03;4.63;;;;;;;;;;5096917;28;20703;-65
2022/10/05 07:30:35;;;;;;;7.27;4.73;;;;;;;;;;5096410;28;20201;-65
2022/10/05 07:33:08;;;;;;;8.57;5.20;;;;;;;;;;5097079;28;20201;-65
2022/10/05 07:38:25;;;;;;;7.07;5.10;;;;;;;;;;5074179;28;20211;-65
2022/10/05 07:40:57;;;;;;;11.27;5.17;;;;;;;;;;5096139;28;20209;-65
2022/10/05 07:43:29;;;;;;;5.63;4.60;;;;;;;;;;5096968;28;20231;-65
2022/10/05 07:46:20;;;;;;;9.27;5.17;;;;;;;;;;5096623;28;20199;-65
2022/10/05 07:48:55;;;;;;;8.53;4.37;;;;;;;;;;5096385;28;20247;-65
2022/10/05 07:51:29;;;;;;;7.23;4.43;;;;;;;;;;5096815;28;20211;-65
2022/10/05 07:54:01;;;;;;;10.10;4.87;;;;;;;;;;5088727;28;20578;-65
2022/10/05 07:56:34;;;;;;;6.50;4.60;;;;;;;;;;5096964;28;20233;-65
2022/10/05 07:59:06;;;;;;;5.13;4.30;;;;;;;;;;5096897;28;20204;-65
2022/10/05 08:01:35;;;;;;;8.10;4.83;;;;;;;;;;5096376;28;20284;-65
2022/10/05 08:04:07;;;;;;;6.33;4.30;;;;;;;;;;5098020;28;20217;-65
2022/10/05 08:06:44;;;;;;;7.87;4.27;;;;;;;;;;5100354;28;20664;-65
2022/10/05 08:09:17;;;;;;;9.30;4.23;;;;;;;;;;5092908;28;20221;-65
2022/10/05 08:11:51;;;;;;;5.53;4.07;;;;;;;;;;5100623;28;20206;-65
2022/10/05 08:14:24;;;;;;;8.10;4.10;;;;;;;;;;5100199;28;20227;-65
2022/10/05 08:16:54;;;;;;;9.63;3.63;;;;;;;;;;5100126;28;20294;-65
2022/10/05 08:19:24;;;;;;;9.87;3.77;;;;;;;;;;5100485;28;20197;-65
2022/10/05 08:21:56;;;;;;;4.87;3.77;;;;;;;;;;5100175;28;20265;-65
2022/10/05 08:24:33;;;;;;;5.70;3.57;;;;;;;;;;5098184;28;20311;-64
2022/10/05 08:27:05;;;;;;;7.07;3.83;;;;;;;;;;5099736;28;20233;-64
2022/10/05 08:29:37;;;;;;;5.80;3.83;;;;;;;;;;5099947;28;20728;-64
2022/10/05 08:32:11;;;;;;;6.30;3.47;;;;;;;;;;5099682;28;20692;-65
2022/10/05 08:34:45;;;;;;;5.73;3.10;;;;;;;;;;5100157;28;20304;-65
2022/10/05 08:37:16;;;;;;;4.87;3.07;;;;;;;;;;5099763;28;20213;-63
2022/10/05 08:39:50;;;;;;;6.30;3.40;;;;;;;;;;5099686;28;20285;-65
2022/10/05 08:42:33;;;;;;;6.73;2.93;;;;;;;;;;5099621;28;20270;-64
2022/10/05 08:45:19;;;;;;;5.80;3.33;;;;;;;;;;5099096;28;20301;-64
2022/10/05 08:47:58;;;;;;;5.73;3.13;;;;;;;;;;5094027;28;20317;-64
2022/10/05 08:50:32;;;;;;;7.20;3.73;;;;;;;;;;5099755;28;20289;-64
2022/10/05 08:53:19;;;;;;;5.17;2.77;;;;;;;;;;5099642;28;20311;-63
2022/10/05 08:55:55;;;;;;;6.23;3.17;;;;;;;;;;5093555;28;20281;-64
2022/10/05 08:58:36;;;;;;;5.20;3.23;;;;;;;;;;5098840;28;20276;-64
2022/10/05 09:01:07;;;;;;;5.10;2.70;;;;;;;;;;5096379;28;20197;-64
2022/10/05 09:03:46;;;;;;;8.30;3.23;;;;;;;;;;5099237;28;20217;-63
2022/10/05 09:06:24;;;;;;;7.93;3.20;;;;;;;;;;5099451;28;20197;-64
2022/10/05 09:09:22;;;;;;;4.53;2.67;;;;;;;;;;5094395;28;20221;-65
2022/10/05 09:11:57;;;;;;;3.60;2.60;;;;;;;;;;5099202;28;20281;-64
2022/10/05 09:14:47;;;;;;;3.53;2.53;;;;;;;;;;5098499;28;20221;-64
2022/10/05 09:18:02;;;;;;;5.63;2.70;;;;;;;;;;5098731;28;20210;-64
2022/10/05 09:20:32;;;;;;;4.03;3.53;;;;;;;;;;5098731;28;20683;-64
2022/10/05 09:23:05;;;;;;;5.17;3.97;;;;;;;;;;5098803;28;20641;-64
2022/10/05 09:25:42;;;;;;;4.27;2.40;;;;;;;;;;5098801;28;20280;-64
2022/10/05 09:28:20;;;;;;;4.20;2.70;;;;;;;;;;5099000;28;20219;-64
2022/10/05 09:30:56;;;;;;;3.97;2.57;;;;;;;;;;5098416;28;20250;-64
2022/10/05 09:33:42;;;;;;;5.50;3.00;;;;;;;;;;5098901;28;20225;-64
2022/10/05 09:36:25;;;;;;;4.60;2.40;;;;;;;;;;5092045;28;20380;-64
2022/10/05 09:39:12;;;;;;;3.80;3.00;;;;;;;;;;5098390;28;20255;-64
2022/10/05 09:41:58;;;;;;;3.50;3.00;;;;;;;;;;5098952;28;20202;-63
2022/10/05 09:44:41;;;;;;;7.17;2.80;;;;;;;;;;5098228;28;20722;-62
2022/10/05 09:47:26;;;;;;;4.53;2.93;;;;;;;;;;5098377;28;20205;-64
2022/10/05 09:50:11;;;;;;;4.40;2.40;;;;;;;;;;5098583;28;20562;-63
2022/10/05 09:52:50;;;;;;;4.17;2.63;;;;;;;;;;5098694;28;20229;-65
2022/10/05 09:55:38;;;;;;;8.23;3.87;;;;;;;;;;5098378;28;20221;-64
2022/10/05 09:58:27;;;;;;;6.60;2.80;;;;;;;;;;5097888;28;20240;-63
2022/10/05 10:01:03;;;;;;;6.03;2.80;;;;;;;;;;5089550;28;20285;-63
2022/10/05 10:04:06;;;;;;;4.97;3.13;;;;;;;;;;5087568;28;20214;-63
2022/10/05 10:06:47;;;;;;;4.60;2.80;;;;;;;;;;5096106;28;20265;-63
2022/10/05 10:09:21;;;;;;;2.90;2.60;;;;;;;;;;5097908;28;20573;-64
2022/10/05 10:11:57;;;;;;;5.00;2.87;;;;;;;;;;5093136;28;20236;-63
2022/10/05 10:14:40;;;;;;;4.00;2.73;;;;;;;;;;5087704;28;20308;-65
2022/10/05 10:17:21;;;;;;;4.57;2.23;;;;;;;;;;5060499;28;20194;-64
2022/10/05 10:19:58;;;;;;;4.20;2.13;;;;;;;;;;5088360;28;20193;-65
2022/10/05 10:22:48;;;;;;;5.20;2.50;;;;;;;;;;5092441;28;20292;-65
2022/10/05 10:25:33;;;;;;;7.97;4.57;;;;;;;;;;5097179;28;20239;-64
2022/10/05 10:28:18;;;;;;;9.57;4.40;;;;;;;;;;5079655;28;20209;-65
2022/10/05 10:31:01;;;;;;;6.40;2.77;;;;;;;;;;5091973;28;20244;-64
2022/10/05 10:33:44;;;;;;;7.43;3.80;;;;;;;;;;5087732;28;20268;-64
2022/10/05 10:36:18;;;;;;;7.23;4.97;;;;;;;;;;5096660;28;20216;-64
2022/10/05 10:38:57;;;;;;;9.80;4.57;;;;;;;;;;5094150;28;20559;-64
2022/10/05 10:41:40;;;;;;;7.73;3.87;;;;;;;;;;5096096;28;20236;-65
2022/10/05 10:44:19;;;;;;;5.53;2.80;;;;;;;;;;5091589;28;20218;-65
2022/10/05 10:46:52;;;;;;;8.33;2.73;;;;;;;;;;5097609;28;20198;-64
2022/10/05 10:49:36;;;;;;;8.90;2.67;;;;;;;;;;5097716;28;20226;-63
2022/10/05 10:52:21;;;;;;;5.53;3.00;;;;;;;;;;5093641;28;20238;-63
2022/10/05 10:55:10;;;;;;;8.87;2.10;;;;;;;;;;5097226;28;20223;-64
2022/10/05 10:57:48;;;;;;;2.73;1.60;;;;;;;;;;5071520;28;20199;-62
2022/10/05 11:00:22;;;;;;;1.73;1.63;;;;;;;;;;5097477;28;20198;-62
2022/10/05 11:03:07;;;;;;;3.03;1.90;;;;;;;;;;5097408;28;20315;-62
2022/10/05 11:05:45;;;;;;;2.17;1.83;;;;;;;;;;5093616;28;20224;-62
2022/10/05 11:08:27;;;;;;;1.87;1.63;;;;;;;;;;5095825;28;20227;-63
2022/10/05 11:11:22;;;;;;;3.40;2.50;;;;;;;;;;5096963;28;20726;-63
2022/10/05 11:14:05;;;;;;;2.30;1.73;;;;;;;;;;5061199;28;20229;-63
2022/10/05 11:17:00;;;;;;;4.60;1.53;;;;;;;;;;5097243;28;20286;-63
2022/10/05 11:19:49;;;;;;;2.53;1.73;;;;;;;;;;5061493;28;20203;-64
2022/10/05 11:22:45;;;;;;;3.57;1.70;;;;;;;;;;5092653;28;20662;-63
2022/10/05 11:25:27;;;;;;;5.83;1.70;;;;;;;;;;5095497;28;20228;-63
2022/10/05 11:28:02;;;;;;;1.47;1.30;;;;;;;;;;5097369;28;20280;-62
2022/10/05 11:30:49;;;;;;;5.23;1.70;;;;;;;;;;5091422;28;20229;-62
2022/10/05 11:33:47;;;;;;;4.20;1.70;;;;;;;;;;5096791;28;20286;-63
2022/10/05 11:36:25;;;;;;;1.83;1.40;;;;;;;;;;5062220;28;20641;-63
2022/10/05 11:39:25;;;;;;;4.83;1.70;;;;;;;;;;5098728;28;20203;-62
2022/10/05 11:42:04;;;;;;;3.33;1.40;;;;;;;;;;5100946;28;20284;-63
2022/10/05 11:45:05;;;;;;;2.43;1.43;;;;;;;;;;5097122;28;20229;-63
2022/10/05 11:47:37;;;;;;;7.10;1.77;;;;;;;;;;5038292;28;20340;-62
2022/10/05 11:50:11;;;;;;;3.20;1.37;;;;;;;;;;5038620;28;20230;-63
2022/10/05 11:52:43;;;;;;;10.43;2.07;;;;;;;;;;5079542;28;20269;-63
2022/10/05 11:55:18;;;;;;;1.43;1.27;;;;;;;;;;5109479;28;20340;-63
2022/10/05 11:57:51;;;;;;;3.03;1.30;;;;;;;;;;5106247;28;20203;-63
2022/10/05 12:00:20;;;;;;;2.27;1.20;;;;;;;;;;5106442;28;20258;-62
2022/10/05 12:03:09;;;;;;;2.90;1.23;;;;;;;;;;5107308;28;20285;-63
2022/10/05 12:05:40;;;;;;;5.70;1.43;;;;;;;;;;5104048;28;20201;-64
2022/10/05 12:08:16;;;;;;;1.20;1.10;;;;;;;;;;5108969;28;20197;-62
2022/10/05 12:10:47;;;;;;;1.10;1.10;;;;;;;;;;5112481;28;20296;-63
2022/10/05 12:13:22;;;;;;;6.13;1.60;;;;;;;;;;5108205;27;20282;-64
2022/10/05 12:15:52;;;;;;;2.00;1.33;;;;;;;;;;5113925;28;20199;-61
2022/10/05 12:18:22;;;;;;;2.43;1.20;;;;;;;;;;5108963;28;20201;-62
2022/10/05 12:20:54;;;;;;;3.60;1.30;;;;;;;;;;5111427;28;20278;-62
2022/10/05 12:23:25;;;;;;;3.30;1.17;;;;;;;;;;5109157;28;20220;-62
2022/10/05 12:25:55;;;;;;;2.27;1.07;;;;;;;;;;5108738;28;20205;-62
2022/10/05 12:28:29;;;;;;;1.30;1.20;;;;;;;;;;5108492;28;20254;-62
2022/10/05 12:31:02;;;;;;;1.10;1.03;;;;;;;;;;5107464;28;20226;-62
2022/10/05 12:33:34;;;;;;;2.40;1.13;;;;;;;;;;5109098;27;20225;-62
2022/10/05 12:36:03;;;;;;;2.27;1.57;;;;;;;;;;5108209;28;20233;-62
2022/10/05 12:38:35;;;;;;;3.63;1.10;;;;;;;;;;5108175;28;20234;-62
2022/10/05 12:41:07;;;;;;;3.67;1.13;;;;;;;;;;5108989;28;20282;-62
2022/10/05 12:43:43;;;;;;;2.50;1.00;;;;;;;;;;5107693;28;20247;-62
2022/10/05 12:46:19;;;;;;;1.80;0.80;;;;;;;;;;5110408;28;20210;-62
2022/10/05 12:48:55;;;;;;;2.83;1.10;;;;;;;;;;5107607;28;20207;-63
2022/10/05 12:51:29;;;;;;;3.30;1.30;;;;;;;;;;5106081;28;20223;-62
2022/10/05 12:53:59;;;;;;;2.63;1.20;;;;;;;;;;5110878;28;20652;-62
2022/10/05 12:56:34;;;;;;;3.50;1.37;;;;;;;;;;5106419;28;20230;-62
2022/10/05 12:59:08;;;;;;;2.47;1.03;;;;;;;;;;5108605;28;20574;-62
2022/10/05 13:01:39;;;;;;;4.87;1.13;;;;;;;;;;5108724;27;20573;-63
2022/10/05 13:04:17;;;;;;;2.43;1.10;;;;;;;;;;5108098;28;20232;-62
2022/10/05 13:06:48;;;;;;;1.17;0.90;;;;;;;;;;5107981;28;20204;-62
2022/10/05 13:09:18;;;;;;;1.30;0.93;;;;;;;;;;5111627;28;20264;-63
2022/10/05 13:11:48;;;;;;;2.37;0.90;;;;;;;;;;5110347;28;20216;-63
2022/10/05 13:14:34;;;;;;;2.47;0.80;;;;;;;;;;5110009;28;20652;-62
2022/10/05 13:17:05;;;;;;;2.93;1.00;;;;;;;;;;5100704;28;20732;-64
2022/10/05 13:19:38;;;;;;;2.10;1.30;;;;;;;;;;5111379;28;20297;-63
2022/10/05 13:22:21;;;;;;;3.40;0.90;;;;;;;;;;5100418;28;20229;-63
2022/10/05 13:24:54;;;;;;;2.13;0.97;;;;;;;;;;5097534;28;20591;-64
2022/10/05 13:27:26;;;;;;;3.10;1.40;;;;;;;;;;5096379;28;20287;-63
2022/10/05 13:29:59;;;;;;;1.10;1.00;;;;;;;;;;5098890;28;20281;-63
2022/10/05 13:32:30;;;;;;;1.37;0.97;;;;;;;;;;5109066;28;20208;-63
2022/10/05 13:35:01;;;;;;;2.97;1.20;;;;;;;;;;5107515;28;20222;-63
2022/10/05 13:37:34;;;;;;;1.00;0.93;;;;;;;;;;5107255;28;20295;-65
2022/10/05 13:40:11;;;;;;;2.77;1.00;;;;;;;;;;5099010;28;20278;-65
2022/10/05 13:42:43;;;;;;;1.80;1.00;;;;;;;;;;5098551;28;20206;-64
2022/10/05 13:45:15;;;;;;;0.87;0.70;;;;;;;;;;5105121;28;20221;-65
2022/10/05 13:47:48;;;;;;;1.10;1.00;;;;;;;;;;5103940;28;20202;-65
2022/10/05 13:50:17;;;;;;;3.00;1.03;;;;;;;;;;5100775;28;20313;-65
2022/10/05 13:52:51;;;;;;;1.00;0.90;;;;;;;;;;5098503;28;20226;-65
2022/10/05 13:55:27;;;;;;;5.07;1.20;;;;;;;;;;5098301;28;20285;-65
2022/10/05 13:58:04;;;;;;;4.83;1.00;;;;;;;;;;5098786;28;20205;-65
2022/10/05 14:00:40;;;;;;;7.83;1.20;;;;;;;;;;5098685;28;20197;-65
2022/10/05 14:03:23;;;;;;;4.57;1.00;;;;;;;;;;5098022;28;20267;-64
2022/10/05 14:05:56;;;;;;;1.20;0.90;;;;;;;;;;5098492;28;20290;-65
2022/10/05 14:08:26;;;;;;;1.43;1.03;;;;;;;;;;5098173;28;20661;-63
2022/10/05 14:10:55;;;;;;;4.63;1.23;;;;;;;;;;5096399;28;20323;-64
2022/10/05 14:13:29;;;;;;;3.10;0.80;;;;;;;;;;5097514;28;20233;-64
2022/10/05 14:16:03;;;;;;;3.43;1.00;;;;;;;;;;5098596;28;20221;-64
2022/10/05 14:18:32;;;;;;;2.17;1.07;;;;;;;;;;5098538;28;20207;-64
2022/10/05 14:21:01;;;;;;;1.73;0.93;;;;;;;;;;5098008;28;20731;-65
2022/10/05 14:23:30;;;;;;;1.23;0.90;;;;;;;;;;5098213;28;20314;-63
2022/10/05 14:25:58;;;;;;;2.03;1.20;;;;;;;;;;5097911;28;20204;-65
2022/10/05 14:28:29;;;;;;;1.73;0.97;;;;;;;;;;5097784;28;20297;-63
2022/10/05 14:30:59;;;;;;;1.83;0.73;;;;;;;;;;5097945;28;20226;-63
2022/10/05 14:33:28;;;;;;;2.93;1.10;;;;;;;;;;5097415;28;20307;-64
2022/10/05 14:35:57;;;;;;;3.70;0.80;;;;;;;;;;5097713;28;20202;-64
2022/10/05 14:38:27;;;;;;;1.13;0.80;;;;;;;;;;5097637;28;20633;-63
2022/10/05 14:41:14;;;;;;;2.17;1.20;;;;;;;;;;5091625;28;20208;-65
2022/10/05 14:43:49;;;;;;;1.40;0.83;;;;;;;;;;5093464;28;20237;-65
2022/10/05 14:46:22;;;;;;;2.20;1.10;;;;;;;;;;5097797;28;20198;-65
2022/10/05 14:49:21;;;;;;;1.63;1.07;;;;;;;;;;5096890;28;20215;-65
2022/10/05 14:51:49;;;;;;;2.40;1.20;;;;;;;;;;5093625;28;20238;-65
2022/10/05 14:54:26;;;;;;;1.20;1.10;;;;;;;;;;5097560;28;20238;-64
2022/10/05 14:56:58;;;;;;;0.87;0.83;;;;;;;;;;5095326;28;20690;-65
2022/10/05 14:59:34;;;;;;;4.43;1.57;;;;;;;;;;5097186;28;20208;-65
2022/10/05 15:02:13;;;;;;;4.97;1.37;;;;;;;;;;5097793;28;20194;-64
2022/10/05 15:04:44;;;;;;;10.20;2.97;;;;;;;;;;5097015;28;20722;-65
2022/10/05 15:07:20;;;;;;;3.50;1.30;;;;;;;;;;5097730;28;20249;-65
2022/10/05 15:10:04;;;;;;;3.87;1.50;;;;;;;;;;5094227;28;20206;-65
2022/10/05 15:12:33;;;;;;;1.03;0.90;;;;;;;;;;5096680;28;20222;-63
2022/10/05 15:15:04;;;;;;;1.60;1.00;;;;;;;;;;5091714;28;20254;-63
2022/10/05 15:17:38;;;;;;;5.07;1.40;;;;;;;;;;5097237;28;20273;-63
2022/10/05 15:20:16;;;;;;;2.83;1.50;;;;;;;;;;5097563;28;20202;-63
2022/10/05 15:22:49;;;;;;;2.83;1.20;;;;;;;;;;5096359;28;20240;-64
2022/10/05 15:25:21;;;;;;;2.30;1.10;;;;;;;;;;5092340;28;20280;-64
2022/10/05 15:28:07;;;;;;;2.97;1.10;;;;;;;;;;5097289;28;20239;-63